Saint Francisville, Illinois
Current Conditions -  °F | °C
As of 7:15 AM on Thursday 18 Dec 2014 (Local Time) from KAJG Reporting Station
Overcast Overcast  
Wind Chill: 25°   Ceiling: 9000
Heat Index: 30°   Visibility: 10mi
Dew Point: 23°   Wind: 5mph
Humidity: 75%   Direction: 30°NNE
Pressure: 30.3"   Gusts: NA
Location:  38.59°N, 87.65°W
Report Text: KAJG 181315Z AUTO 03004KT 10SM SCT012 OVC090 M01/M05 A3030 RMK AO2
Loading
Personal Weather Stations






























Interactive Weather Map New forecast layout! Learn more

10-Day Weather Forecast

Advertisements
Track Severe Weather on mobile